»·PEaware :: N9118S KSMX-KBFL

N9118S :: KSMX-KBFL

FLIGHT INFORMATION

Flight Status: Arrived
Operator: Privately registered:
United States
More flights under this callsign
Pilot: Michael M. (12217)
Aircraft: CESSNA 172 SKYHAWK
(C172)
More flights by this aircraft type
Origin: KSMX Santa Maria Pub/Capt Hancock
United States
Destination: KBFL Meadows
United States
More flights between these airports :: More routes between these airports
Route: +
File this flight plan on PilotEdge
Remarks: CAT 5 EXAM
Altitude:
(Current/Filed)
0ft
Speed:
(Current/Filed)
110kts
Departed: 28-Oct-16 05:25 PM
Arrived: 28-Oct-16 06:18 PM
Distance/Time
Traveled:
0nm/0:53
Distance/Time
To Go:
Arrived

Flight Plot

Page will automatically refresh every two minutes.


Map Options




Map Legend


Flown Route
Filed Route
Departure Airport
Arrival Airport
Navaid (VOR, NDB)
Fix

Horizontal Profiles

Position Reports

Time Latitude Longitude Heading Altitude Ground
Speed
28-Oct-16 17:08 34.894364 -120.443018 315 264ft 0kts
28-Oct-16 17:09 34.894364 -120.443018 315 264ft 0kts
28-Oct-16 17:10 34.894364 -120.443018 315 264ft 0kts
28-Oct-16 17:11 34.894364 -120.443018 315 264ft 0kts
28-Oct-16 17:12 34.894364 -120.443018 315 264ft 0kts
28-Oct-16 17:13 34.894364 -120.443018 315 264ft 0kts
28-Oct-16 17:14 34.894364 -120.443018 315 264ft 0kts
28-Oct-16 17:15 34.893610 -120.443611 300 264ft 5kts
28-Oct-16 17:16 34.893075 -120.445544 230 264ft 0kts
28-Oct-16 17:17 34.893070 -120.445552 228 264ft 0kts
28-Oct-16 17:18 34.893070 -120.445552 228 264ft 0kts
28-Oct-16 17:19 34.893218 -120.446376 314 264ft 25kts
28-Oct-16 17:20 34.905776 -120.462598 309 957ft 73kts
28-Oct-16 17:21 34.919989 -120.465176 78 1772ft 85kts
28-Oct-16 17:22 34.927745 -120.438813 59 2461ft 95kts
28-Oct-16 17:23 34.931287 -120.409841 87 3068ft 102kts
28-Oct-16 17:24 34.927326 -120.377551 108 3695ft 105kts
28-Oct-16 17:25 34.932282 -120.349282 57 4430ft 93kts
28-Oct-16 17:26 34.943442 -120.325201 50 5124ft 95kts
28-Oct-16 17:27 34.955836 -120.299009 59 5668ft 104kts
28-Oct-16 17:28 34.964892 -120.270354 71 6127ft 108kts
28-Oct-16 17:29 34.972255 -120.239816 69 6520ft 113kts
28-Oct-16 17:30 34.984650 -120.215110 46 6881ft 113kts
28-Oct-16 17:31 34.999946 -120.191510 43 7491ft 91kts
28-Oct-16 17:32 35.018212 -120.171854 30 7609ft 122kts
28-Oct-16 17:33 35.025037 -120.140985 86 7417ft 128kts
28-Oct-16 17:34 35.029238 -120.114360 74 7421ft 120kts
28-Oct-16 17:35 35.034771 -120.094468 69 7409ft 118kts
28-Oct-16 17:36 35.040300 -120.077804 68 7403ft 117kts
28-Oct-16 17:37 35.045491 -120.063116 67 7361ft 120kts
28-Oct-16 17:38 35.051573 -120.046680 67 7544ft 102kts
28-Oct-16 17:39 35.057550 -120.030991 67 7782ft 75kts
28-Oct-16 17:40 35.064702 -120.012355 66 7662ft 103kts
28-Oct-16 17:41 35.076125 -119.982938 66 7658ft 116kts
28-Oct-16 17:42 35.084357 -119.961888 65 7580ft 125kts
28-Oct-16 17:43 35.095911 -119.932313 65 7394ft 127kts
28-Oct-16 17:44 35.105388 -119.908058 65 7395ft 122kts
28-Oct-16 17:45 35.116552 -119.879489 65 7395ft 119kts
28-Oct-16 17:46 35.129514 -119.846283 65 7396ft 119kts
28-Oct-16 17:47 35.142315 -119.813475 65 7524ft 113kts
28-Oct-16 17:48 35.156206 -119.778108 66 7555ft 132kts
28-Oct-16 17:49 35.169027 -119.744977 66 7549ft 117kts
28-Oct-16 17:50 35.181564 -119.712629 65 7547ft 116kts
28-Oct-16 17:51 35.190726 -119.689022 64 7545ft 119kts
28-Oct-16 17:52 35.205508 -119.650925 64 7538ft 123kts
28-Oct-16 17:53 35.216735 -119.619605 69 7194ft 125kts
28-Oct-16 17:54 35.228473 -119.582256 66 6465ft 131kts
28-Oct-16 17:55 35.243933 -119.540671 60 5421ft 134kts
28-Oct-16 17:56 35.259392 -119.508939 49 5411ft 91kts
28-Oct-16 17:57 35.279123 -119.478727 46 5366ft 131kts
28-Oct-16 17:58 35.300811 -119.448637 47 4977ft 127kts
28-Oct-16 17:59 35.311999 -119.410280 68 4514ft 129kts
28-Oct-16 18:00 35.321800 -119.378396 71 4142ft 127kts
28-Oct-16 18:01 35.333497 -119.339887 52 3633ft 126kts
28-Oct-16 18:02 35.343525 -119.304614 78 3486ft 112kts
28-Oct-16 18:03 35.353643 -119.268485 62 3487ft 113kts
28-Oct-16 18:04 35.365673 -119.236200 60 3482ft 101kts
28-Oct-16 18:05 35.376796 -119.207076 60 3486ft 91kts
28-Oct-16 18:06 35.386841 -119.180869 60 3492ft 96kts
28-Oct-16 18:07 35.398402 -119.150630 60 3488ft 104kts
28-Oct-16 18:08 35.409492 -119.121537 60 3484ft 94kts
28-Oct-16 18:09 35.418602 -119.094519 66 2700ft 103kts
28-Oct-16 18:10 35.413133 -119.070118 127 1971ft 108kts
28-Oct-16 18:11 35.405165 -119.045403 42 1562ft 80kts
28-Oct-16 18:12 35.424154 -119.045054 322 823ft 62kts
28-Oct-16 18:13 35.434046 -119.056407 316 509ft 21kts
28-Oct-16 18:14 35.436343 -119.057397 86 509ft 8kts
28-Oct-16 18:15 35.436452 -119.054566 46 509ft 9kts
28-Oct-16 18:16 35.436597 -119.054373 47 509ft 0kts
28-Oct-16 18:17 35.436597 -119.054373 47 509ft 0kts
28-Oct-16 18:18 34.906715 -120.458282 232 264ft 0kts

Navigation Log

Ident Type
Flight plan parsing failed, navigation log unavailable